sensor_id;sensor_type;location;lat;lon;timestamp;P1;durP1;ratioP1;P2;durP2;ratioP2
2976;SDS011;1498;51.500;7.440;2023-02-11T00:01:06;39.93;;;26.23;;
2976;SDS011;1498;51.500;7.440;2023-02-11T00:03:33;44.33;;;25.03;;
2976;SDS011;1498;51.500;7.440;2023-02-11T00:06:00;39.93;;;24.63;;
2976;SDS011;1498;51.500;7.440;2023-02-11T00:08:27;40.07;;;23.93;;
2976;SDS011;1498;51.500;7.440;2023-02-11T00:10:53;43.90;;;25.20;;
2976;SDS011;1498;51.500;7.440;2023-02-11T00:13:20;43.93;;;24.00;;
2976;SDS011;1498;51.500;7.440;2023-02-11T00:15:46;40.00;;;25.20;;
2976;SDS011;1498;51.500;7.440;2023-02-11T00:18:12;42.33;;;25.70;;
2976;SDS011;1498;51.500;7.440;2023-02-11T00:20:37;42.60;;;23.53;;
2976;SDS011;1498;51.500;7.440;2023-02-11T00:23:03;44.50;;;24.80;;
2976;SDS011;1498;51.500;7.440;2023-02-11T00:25:29;43.43;;;25.10;;
2976;SDS011;1498;51.500;7.440;2023-02-11T00:27:54;35.30;;;22.80;;
2976;SDS011;1498;51.500;7.440;2023-02-11T00:30:20;46.13;;;23.83;;
2976;SDS011;1498;51.500;7.440;2023-02-11T00:32:46;39.30;;;23.70;;
2976;SDS011;1498;51.500;7.440;2023-02-11T00:35:11;42.80;;;25.37;;
2976;SDS011;1498;51.500;7.440;2023-02-11T00:37:37;37.70;;;23.30;;
2976;SDS011;1498;51.500;7.440;2023-02-11T00:40:03;43.30;;;24.97;;
2976;SDS011;1498;51.500;7.440;2023-02-11T00:42:29;38.40;;;22.70;;
2976;SDS011;1498;51.500;7.440;2023-02-11T00:44:55;50.90;;;26.37;;
2976;SDS011;1498;51.500;7.440;2023-02-11T00:47:20;47.37;;;25.53;;
2976;SDS011;1498;51.500;7.440;2023-02-11T00:49:46;41.97;;;25.23;;
2976;SDS011;1498;51.500;7.440;2023-02-11T00:52:11;40.90;;;25.10;;
2976;SDS011;1498;51.500;7.440;2023-02-11T00:54:37;41.30;;;26.30;;
2976;SDS011;1498;51.500;7.440;2023-02-11T00:57:02;35.53;;;23.93;;
2976;SDS011;1498;51.500;7.440;2023-02-11T00:59:28;44.17;;;25.20;;
2976;SDS011;1498;51.500;7.440;2023-02-11T01:01:53;44.57;;;22.67;;
2976;SDS011;1498;51.500;7.440;2023-02-11T01:04:19;34.37;;;22.00;;
2976;SDS011;1498;51.500;7.440;2023-02-11T01:06:45;39.20;;;23.23;;
2976;SDS011;1498;51.500;7.440;2023-02-11T01:09:10;38.37;;;23.37;;
2976;SDS011;1498;51.500;7.440;2023-02-11T01:11:36;41.63;;;23.50;;
2976;SDS011;1498;51.500;7.440;2023-02-11T01:14:01;38.73;;;23.90;;
2976;SDS011;1498;51.500;7.440;2023-02-11T01:16:27;35.03;;;22.20;;
2976;SDS011;1498;51.500;7.440;2023-02-11T01:18:52;35.50;;;21.50;;
2976;SDS011;1498;51.500;7.440;2023-02-11T01:21:18;39.20;;;22.83;;
2976;SDS011;1498;51.500;7.440;2023-02-11T01:23:43;35.67;;;22.47;;
2976;SDS011;1498;51.500;7.440;2023-02-11T01:26:09;32.87;;;21.17;;
2976;SDS011;1498;51.500;7.440;2023-02-11T01:28:34;33.40;;;21.47;;
2976;SDS011;1498;51.500;7.440;2023-02-11T01:31:00;37.83;;;21.73;;
2976;SDS011;1498;51.500;7.440;2023-02-11T01:33:26;42.70;;;23.70;;
2976;SDS011;1498;51.500;7.440;2023-02-11T01:35:52;38.17;;;22.60;;
2976;SDS011;1498;51.500;7.440;2023-02-11T01:38:24;45.40;;;23.10;;
2976;SDS011;1498;51.500;7.440;2023-02-11T01:41:00;34.47;;;23.23;;
2976;SDS011;1498;51.500;7.440;2023-02-11T01:43:31;29.13;;;21.00;;
2976;SDS011;1498;51.500;7.440;2023-02-11T01:48:25;35.13;;;21.43;;
2976;SDS011;1498;51.500;7.440;2023-02-11T01:50:51;37.57;;;22.43;;
2976;SDS011;1498;51.500;7.440;2023-02-11T01:53:23;35.67;;;22.60;;
2976;SDS011;1498;51.500;7.440;2023-02-11T01:56:08;34.93;;;20.10;;
2976;SDS011;1498;51.500;7.440;2023-02-11T01:58:54;36.30;;;22.37;;
2976;SDS011;1498;51.500;7.440;2023-02-11T02:01:29;35.77;;;20.87;;
2976;SDS011;1498;51.500;7.440;2023-02-11T02:03:58;37.00;;;20.40;;
2976;SDS011;1498;51.500;7.440;2023-02-11T02:06:43;34.77;;;20.23;;
2976;SDS011;1498;51.500;7.440;2023-02-11T02:09:15;37.23;;;21.57;;
2976;SDS011;1498;51.500;7.440;2023-02-11T02:11:45;30.10;;;18.80;;
2976;SDS011;1498;51.500;7.440;2023-02-11T02:14:11;35.53;;;19.80;;
2976;SDS011;1498;51.500;7.440;2023-02-11T02:16:37;32.57;;;20.70;;
2976;SDS011;1498;51.500;7.440;2023-02-11T02:22:17;34.73;;;18.17;;
2976;SDS011;1498;51.500;7.440;2023-02-11T02:24:57;32.73;;;19.87;;
2976;SDS011;1498;51.500;7.440;2023-02-11T02:33:27;35.43;;;21.30;;
2976;SDS011;1498;51.500;7.440;2023-02-11T02:38:39;37.37;;;21.43;;
2976;SDS011;1498;51.500;7.440;2023-02-11T02:41:14;40.87;;;24.80;;
2976;SDS011;1498;51.500;7.440;2023-02-11T02:43:42;32.67;;;21.07;;
2976;SDS011;1498;51.500;7.440;2023-02-11T02:46:18;30.17;;;20.90;;
2976;SDS011;1498;51.500;7.440;2023-02-11T02:48:45;36.10;;;21.67;;
2976;SDS011;1498;51.500;7.440;2023-02-11T02:51:19;34.40;;;21.47;;
2976;SDS011;1498;51.500;7.440;2023-02-11T03:00:22;32.80;;;20.37;;
2976;SDS011;1498;51.500;7.440;2023-02-11T03:06:02;34.33;;;22.40;;
2976;SDS011;1498;51.500;7.440;2023-02-11T03:08:46;34.87;;;21.37;;
2976;SDS011;1498;51.500;7.440;2023-02-11T03:11:24;31.23;;;22.43;;
2976;SDS011;1498;51.500;7.440;2023-02-11T03:13:52;35.87;;;21.20;;
2976;SDS011;1498;51.500;7.440;2023-02-11T03:16:20;37.27;;;22.47;;
2976;SDS011;1498;51.500;7.440;2023-02-11T03:18:51;45.13;;;23.20;;
2976;SDS011;1498;51.500;7.440;2023-02-11T03:21:25;37.27;;;21.90;;
2976;SDS011;1498;51.500;7.440;2023-02-11T03:23:53;39.10;;;22.83;;
2976;SDS011;1498;51.500;7.440;2023-02-11T03:29:17;37.33;;;22.93;;
2976;SDS011;1498;51.500;7.440;2023-02-11T03:32:07;42.67;;;24.70;;
2976;SDS011;1498;51.500;7.440;2023-02-11T03:37:26;36.33;;;21.87;;
2976;SDS011;1498;51.500;7.440;2023-02-11T03:39:55;36.87;;;22.57;;
2976;SDS011;1498;51.500;7.440;2023-02-11T05:31:15;39.37;;;23.43;;
2976;SDS011;1498;51.500;7.440;2023-02-11T05:33:41;48.17;;;26.83;;
2976;SDS011;1498;51.500;7.440;2023-02-11T05:36:08;44.70;;;24.33;;
2976;SDS011;1498;51.500;7.440;2023-02-11T05:38:35;47.90;;;24.70;;
2976;SDS011;1498;51.500;7.440;2023-02-11T05:41:01;40.13;;;23.50;;
2976;SDS011;1498;51.500;7.440;2023-02-11T05:43:28;40.03;;;22.03;;
2976;SDS011;1498;51.500;7.440;2023-02-11T05:45:53;44.97;;;25.20;;
2976;SDS011;1498;51.500;7.440;2023-02-11T05:48:19;45.50;;;25.27;;
2976;SDS011;1498;51.500;7.440;2023-02-11T05:50:45;38.30;;;22.37;;
2976;SDS011;1498;51.500;7.440;2023-02-11T05:53:10;40.00;;;22.93;;
2976;SDS011;1498;51.500;7.440;2023-02-11T05:55:36;39.00;;;24.43;;
2976;SDS011;1498;51.500;7.440;2023-02-11T05:58:02;43.47;;;25.33;;
2976;SDS011;1498;51.500;7.440;2023-02-11T06:00:28;36.80;;;23.57;;
2976;SDS011;1498;51.500;7.440;2023-02-11T06:02:53;47.67;;;24.93;;
2976;SDS011;1498;51.500;7.440;2023-02-11T06:05:19;41.47;;;24.40;;
2976;SDS011;1498;51.500;7.440;2023-02-11T06:07:44;45.27;;;26.13;;
2976;SDS011;1498;51.500;7.440;2023-02-11T06:10:10;47.40;;;26.87;;
2976;SDS011;1498;51.500;7.440;2023-02-11T06:12:36;38.60;;;23.87;;
2976;SDS011;1498;51.500;7.440;2023-02-11T06:15:02;39.20;;;25.63;;
2976;SDS011;1498;51.500;7.440;2023-02-11T06:17:28;45.20;;;25.50;;
2976;SDS011;1498;51.500;7.440;2023-02-11T06:19:58;42.47;;;25.17;;
2976;SDS011;1498;51.500;7.440;2023-02-11T06:22:24;48.70;;;27.00;;
2976;SDS011;1498;51.500;7.440;2023-02-11T06:24:50;49.47;;;26.43;;
2976;SDS011;1498;51.500;7.440;2023-02-11T06:27:16;41.80;;;26.10;;
2976;SDS011;1498;51.500;7.440;2023-02-11T06:29:42;42.90;;;25.50;;
2976;SDS011;1498;51.500;7.440;2023-02-11T06:32:08;49.30;;;25.93;;
2976;SDS011;1498;51.500;7.440;2023-02-11T06:34:34;46.20;;;27.47;;
2976;SDS011;1498;51.500;7.440;2023-02-11T06:36:59;41.97;;;25.03;;
2976;SDS011;1498;51.500;7.440;2023-02-11T06:39:25;44.87;;;26.67;;
2976;SDS011;1498;51.500;7.440;2023-02-11T06:41:50;45.10;;;23.10;;
2976;SDS011;1498;51.500;7.440;2023-02-11T06:44:16;48.53;;;27.07;;
2976;SDS011;1498;51.500;7.440;2023-02-11T06:46:41;42.70;;;28.07;;
2976;SDS011;1498;51.500;7.440;2023-02-11T06:49:07;41.03;;;24.60;;
2976;SDS011;1498;51.500;7.440;2023-02-11T06:51:32;44.53;;;26.17;;
2976;SDS011;1498;51.500;7.440;2023-02-11T06:53:58;49.57;;;27.63;;
2976;SDS011;1498;51.500;7.440;2023-02-11T06:56:23;51.00;;;28.97;;
2976;SDS011;1498;51.500;7.440;2023-02-11T06:58:51;61.63;;;28.10;;
2976;SDS011;1498;51.500;7.440;2023-02-11T07:01:22;48.83;;;28.20;;
2976;SDS011;1498;51.500;7.440;2023-02-11T07:03:48;39.27;;;23.60;;
2976;SDS011;1498;51.500;7.440;2023-02-11T07:06:15;54.33;;;26.70;;
2976;SDS011;1498;51.500;7.440;2023-02-11T07:08:45;55.70;;;27.40;;
2976;SDS011;1498;51.500;7.440;2023-02-11T07:11:15;48.27;;;25.93;;
2976;SDS011;1498;51.500;7.440;2023-02-11T07:13:43;47.80;;;28.37;;
2976;SDS011;1498;51.500;7.440;2023-02-11T07:16:13;61.33;;;26.70;;
2976;SDS011;1498;51.500;7.440;2023-02-11T07:18:40;57.43;;;27.63;;
2976;SDS011;1498;51.500;7.440;2023-02-11T07:21:06;52.40;;;27.93;;
2976;SDS011;1498;51.500;7.440;2023-02-11T07:23:33;58.17;;;27.67;;
2976;SDS011;1498;51.500;7.440;2023-02-11T07:26:06;56.37;;;29.07;;
2976;SDS011;1498;51.500;7.440;2023-02-11T07:28:34;45.47;;;27.23;;
2976;SDS011;1498;51.500;7.440;2023-02-11T07:31:20;50.37;;;28.03;;
2976;SDS011;1498;51.500;7.440;2023-02-11T07:33:48;56.67;;;29.17;;
2976;SDS011;1498;51.500;7.440;2023-02-11T07:36:15;53.60;;;29.67;;
2976;SDS011;1498;51.500;7.440;2023-02-11T07:38:41;45.57;;;30.03;;
2976;SDS011;1498;51.500;7.440;2023-02-11T07:41:10;60.70;;;29.10;;
2976;SDS011;1498;51.500;7.440;2023-02-11T07:43:38;69.93;;;31.57;;
2976;SDS011;1498;51.500;7.440;2023-02-11T07:46:05;60.20;;;30.90;;
2976;SDS011;1498;51.500;7.440;2023-02-11T07:48:32;54.63;;;28.47;;
2976;SDS011;1498;51.500;7.440;2023-02-11T07:51:08;56.83;;;30.37;;
2976;SDS011;1498;51.500;7.440;2023-02-11T07:53:36;58.17;;;28.10;;
2976;SDS011;1498;51.500;7.440;2023-02-11T07:56:02;59.03;;;30.90;;
2976;SDS011;1498;51.500;7.440;2023-02-11T07:58:29;49.63;;;27.87;;
2976;SDS011;1498;51.500;7.440;2023-02-11T08:00:59;58.10;;;28.43;;
2976;SDS011;1498;51.500;7.440;2023-02-11T08:03:26;56.73;;;29.27;;
2976;SDS011;1498;51.500;7.440;2023-02-11T08:05:51;62.17;;;30.00;;
2976;SDS011;1498;51.500;7.440;2023-02-11T08:08:17;61.60;;;32.90;;
2976;SDS011;1498;51.500;7.440;2023-02-11T08:10:42;70.90;;;31.73;;
2976;SDS011;1498;51.500;7.440;2023-02-11T08:13:08;70.13;;;32.47;;
2976;SDS011;1498;51.500;7.440;2023-02-11T08:15:33;64.07;;;32.77;;
2976;SDS011;1498;51.500;7.440;2023-02-11T08:17:59;71.70;;;31.30;;
2976;SDS011;1498;51.500;7.440;2023-02-11T08:20:24;71.87;;;31.50;;
2976;SDS011;1498;51.500;7.440;2023-02-11T08:22:50;68.63;;;35.30;;
2976;SDS011;1498;51.500;7.440;2023-02-11T08:25:15;67.30;;;30.87;;
2976;SDS011;1498;51.500;7.440;2023-02-11T08:27:41;66.23;;;30.40;;
2976;SDS011;1498;51.500;7.440;2023-02-11T08:30:07;76.97;;;32.20;;
2976;SDS011;1498;51.500;7.440;2023-02-11T08:32:33;69.73;;;34.20;;
2976;SDS011;1498;51.500;7.440;2023-02-11T08:34:59;68.47;;;31.77;;
2976;SDS011;1498;51.500;7.440;2023-02-11T08:37:24;82.50;;;35.10;;
2976;SDS011;1498;51.500;7.440;2023-02-11T08:39:50;81.60;;;31.07;;
2976;SDS011;1498;51.500;7.440;2023-02-11T08:42:15;62.03;;;30.77;;
2976;SDS011;1498;51.500;7.440;2023-02-11T08:44:41;78.03;;;34.00;;
2976;SDS011;1498;51.500;7.440;2023-02-11T08:47:07;69.70;;;33.33;;
2976;SDS011;1498;51.500;7.440;2023-02-11T08:49:32;70.17;;;34.43;;
2976;SDS011;1498;51.500;7.440;2023-02-11T08:51:59;73.90;;;34.03;;
2976;SDS011;1498;51.500;7.440;2023-02-11T08:54:28;70.10;;;31.20;;
2976;SDS011;1498;51.500;7.440;2023-02-11T08:56:55;76.63;;;37.43;;
2976;SDS011;1498;51.500;7.440;2023-02-11T08:59:20;86.00;;;34.83;;
2976;SDS011;1498;51.500;7.440;2023-02-11T09:01:46;82.93;;;34.13;;
2976;SDS011;1498;51.500;7.440;2023-02-11T09:04:12;82.30;;;37.33;;
2976;SDS011;1498;51.500;7.440;2023-02-11T09:06:38;77.23;;;33.33;;
2976;SDS011;1498;51.500;7.440;2023-02-11T09:09:04;53.70;;;31.80;;
2976;SDS011;1498;51.500;7.440;2023-02-11T09:11:31;67.63;;;34.07;;
2976;SDS011;1498;51.500;7.440;2023-02-11T09:13:58;63.33;;;32.47;;
2976;SDS011;1498;51.500;7.440;2023-02-11T09:16:25;81.70;;;35.00;;
2976;SDS011;1498;51.500;7.440;2023-02-11T09:18:55;76.13;;;32.60;;
2976;SDS011;1498;51.500;7.440;2023-02-11T09:21:22;80.10;;;36.27;;
2976;SDS011;1498;51.500;7.440;2023-02-11T09:23:47;80.97;;;35.57;;
2976;SDS011;1498;51.500;7.440;2023-02-11T09:26:18;71.80;;;35.43;;
2976;SDS011;1498;51.500;7.440;2023-02-11T09:28:45;79.70;;;33.77;;
2976;SDS011;1498;51.500;7.440;2023-02-11T09:31:12;81.47;;;34.57;;
2976;SDS011;1498;51.500;7.440;2023-02-11T09:33:40;85.43;;;35.27;;
2976;SDS011;1498;51.500;7.440;2023-02-11T09:36:12;73.57;;;34.87;;
2976;SDS011;1498;51.500;7.440;2023-02-11T09:38:39;79.37;;;35.77;;
2976;SDS011;1498;51.500;7.440;2023-02-11T09:41:11;75.93;;;37.10;;
2976;SDS011;1498;51.500;7.440;2023-02-11T09:43:47;71.33;;;35.93;;
2976;SDS011;1498;51.500;7.440;2023-02-11T09:46:16;78.90;;;35.27;;
2976;SDS011;1498;51.500;7.440;2023-02-11T09:48:43;65.20;;;32.50;;
2976;SDS011;1498;51.500;7.440;2023-02-11T09:51:16;86.77;;;35.87;;
2976;SDS011;1498;51.500;7.440;2023-02-11T09:53:45;82.83;;;35.53;;
2976;SDS011;1498;51.500;7.440;2023-02-11T09:56:13;66.60;;;33.03;;
2976;SDS011;1498;51.500;7.440;2023-02-11T09:58:40;70.63;;;33.03;;
2976;SDS011;1498;51.500;7.440;2023-02-11T10:01:28;61.77;;;30.37;;
2976;SDS011;1498;51.500;7.440;2023-02-11T10:10:42;72.70;;;34.63;;
2976;SDS011;1498;51.500;7.440;2023-02-11T10:15:41;75.77;;;38.10;;
2976;SDS011;1498;51.500;7.440;2023-02-11T10:18:29;82.90;;;35.80;;
2976;SDS011;1498;51.500;7.440;2023-02-11T10:24:09;76.70;;;39.20;;
2976;SDS011;1498;51.500;7.440;2023-02-11T10:26:37;81.20;;;36.17;;
2976;SDS011;1498;51.500;7.440;2023-02-11T10:29:10;70.83;;;34.50;;
2976;SDS011;1498;51.500;7.440;2023-02-11T10:31:56;80.93;;;35.50;;
2976;SDS011;1498;51.500;7.440;2023-02-11T10:34:24;76.93;;;36.87;;
2976;SDS011;1498;51.500;7.440;2023-02-11T10:36:49;87.80;;;35.20;;
2976;SDS011;1498;51.500;7.440;2023-02-11T10:39:17;74.77;;;35.27;;
2976;SDS011;1498;51.500;7.440;2023-02-11T10:44:22;77.50;;;34.70;;
2976;SDS011;1498;51.500;7.440;2023-02-11T10:46:51;70.27;;;31.70;;
2976;SDS011;1498;51.500;7.440;2023-02-11T10:49:32;73.73;;;34.70;;
2976;SDS011;1498;51.500;7.440;2023-02-11T10:52:42;78.20;;;36.63;;
2976;SDS011;1498;51.500;7.440;2023-02-11T10:54:57;77.17;;;35.40;;
2976;SDS011;1498;51.500;7.440;2023-02-11T10:57:27;71.80;;;34.13;;
2976;SDS011;1498;51.500;7.440;2023-02-11T10:59:56;68.70;;;33.90;;
2976;SDS011;1498;51.500;7.440;2023-02-11T11:02:28;63.33;;;32.07;;
2976;SDS011;1498;51.500;7.440;2023-02-11T11:04:58;81.57;;;35.20;;
2976;SDS011;1498;51.500;7.440;2023-02-11T11:07:31;64.70;;;33.47;;
2976;SDS011;1498;51.500;7.440;2023-02-11T11:12:50;74.87;;;34.90;;
2976;SDS011;1498;51.500;7.440;2023-02-11T11:15:18;72.83;;;35.60;;
2976;SDS011;1498;51.500;7.440;2023-02-11T11:18:07;69.33;;;34.77;;
2976;SDS011;1498;51.500;7.440;2023-02-11T11:20:33;70.93;;;34.90;;
2976;SDS011;1498;51.500;7.440;2023-02-11T11:23:33;87.83;;;34.10;;
2976;SDS011;1498;51.500;7.440;2023-02-11T11:26:12;73.30;;;35.73;;
2976;SDS011;1498;51.500;7.440;2023-02-11T11:28:40;75.20;;;33.93;;
2976;SDS011;1498;51.500;7.440;2023-02-11T11:31:35;81.70;;;35.27;;
2976;SDS011;1498;51.500;7.440;2023-02-11T11:34:19;74.10;;;38.13;;
2976;SDS011;1498;51.500;7.440;2023-02-11T11:36:52;72.60;;;33.67;;
2976;SDS011;1498;51.500;7.440;2023-02-11T11:41:49;83.90;;;39.80;;
2976;SDS011;1498;51.500;7.440;2023-02-11T11:44:38;83.43;;;35.77;;
2976;SDS011;1498;51.500;7.440;2023-02-11T11:55:13;70.90;;;38.47;;
2976;SDS011;1498;51.500;7.440;2023-02-11T11:57:43;82.73;;;37.53;;
2976;SDS011;1498;51.500;7.440;2023-02-11T12:00:18;74.63;;;35.83;;
2976;SDS011;1498;51.500;7.440;2023-02-11T12:05:35;83.23;;;38.70;;
2976;SDS011;1498;51.500;7.440;2023-02-11T12:11:05;80.60;;;37.73;;
2976;SDS011;1498;51.500;7.440;2023-02-11T12:16:15;89.87;;;39.53;;
2976;SDS011;1498;51.500;7.440;2023-02-11T12:18:59;81.03;;;40.70;;
2976;SDS011;1498;51.500;7.440;2023-02-11T12:21:41;94.63;;;41.73;;
2976;SDS011;1498;51.500;7.440;2023-02-11T12:24:19;88.90;;;39.57;;
2976;SDS011;1498;51.500;7.440;2023-02-11T12:27:01;82.40;;;39.77;;
2976;SDS011;1498;51.500;7.440;2023-02-11T12:29:42;86.97;;;39.87;;
2976;SDS011;1498;51.500;7.440;2023-02-11T12:32:30;81.10;;;37.50;;
2976;SDS011;1498;51.500;7.440;2023-02-11T12:41:00;90.03;;;39.83;;
2976;SDS011;1498;51.500;7.440;2023-02-11T12:43:37;88.03;;;41.27;;
2976;SDS011;1498;51.500;7.440;2023-02-11T12:52:07;93.93;;;43.00;;
2976;SDS011;1498;51.500;7.440;2023-02-11T12:54:44;87.43;;;41.67;;
2976;SDS011;1498;51.500;7.440;2023-02-11T12:57:33;90.73;;;42.20;;
2976;SDS011;1498;51.500;7.440;2023-02-11T13:08:24;92.00;;;41.93;;
2976;SDS011;1498;51.500;7.440;2023-02-11T13:10:56;94.70;;;45.87;;
2976;SDS011;1498;51.500;7.440;2023-02-11T13:16:02;95.23;;;44.60;;
2976;SDS011;1498;51.500;7.440;2023-02-11T13:18:44;91.90;;;43.70;;
2976;SDS011;1498;51.500;7.440;2023-02-11T13:26:20;98.37;;;46.07;;
2976;SDS011;1498;51.500;7.440;2023-02-11T13:28:52;107.37;;;44.20;;
2976;SDS011;1498;51.500;7.440;2023-02-11T13:31:23;82.17;;;44.27;;
2976;SDS011;1498;51.500;7.440;2023-02-11T13:33:51;83.80;;;42.83;;
2976;SDS011;1498;51.500;7.440;2023-02-11T13:36:18;91.77;;;45.90;;
2976;SDS011;1498;51.500;7.440;2023-02-11T13:39:19;98.30;;;47.50;;
2976;SDS011;1498;51.500;7.440;2023-02-11T13:41:44;95.90;;;43.20;;
2976;SDS011;1498;51.500;7.440;2023-02-11T13:49:24;91.73;;;44.37;;
2976;SDS011;1498;51.500;7.440;2023-02-11T13:51:52;100.10;;;45.77;;
2976;SDS011;1498;51.500;7.440;2023-02-11T13:54:21;101.77;;;43.67;;
2976;SDS011;1498;51.500;7.440;2023-02-11T13:57:30;101.33;;;44.73;;
2976;SDS011;1498;51.500;7.440;2023-02-11T13:59:55;89.33;;;45.10;;
2976;SDS011;1498;51.500;7.440;2023-02-11T14:02:24;106.33;;;45.10;;
2976;SDS011;1498;51.500;7.440;2023-02-11T14:14:00;93.90;;;45.10;;
2976;SDS011;1498;51.500;7.440;2023-02-11T14:19:39;104.43;;;44.57;;
2976;SDS011;1498;51.500;7.440;2023-02-11T14:24:54;98.57;;;45.20;;
2976;SDS011;1498;51.500;7.440;2023-02-11T14:27:24;98.17;;;46.23;;
2976;SDS011;1498;51.500;7.440;2023-02-11T14:33:08;90.90;;;45.80;;
2976;SDS011;1498;51.500;7.440;2023-02-11T14:35:46;75.67;;;41.40;;
2976;SDS011;1498;51.500;7.440;2023-02-11T14:38:26;75.33;;;41.60;;
2976;SDS011;1498;51.500;7.440;2023-02-11T14:41:09;87.63;;;41.20;;
2976;SDS011;1498;51.500;7.440;2023-02-11T14:43:56;85.23;;;43.97;;
2976;SDS011;1498;51.500;7.440;2023-02-11T14:46:24;92.70;;;42.60;;
2976;SDS011;1498;51.500;7.440;2023-02-11T14:49:00;78.07;;;41.40;;
2976;SDS011;1498;51.500;7.440;2023-02-11T14:54:03;69.93;;;37.30;;
2976;SDS011;1498;51.500;7.440;2023-02-11T14:56:39;68.27;;;35.80;;
2976;SDS011;1498;51.500;7.440;2023-02-11T14:59:19;80.20;;;42.17;;
2976;SDS011;1498;51.500;7.440;2023-02-11T15:01:50;73.80;;;41.13;;
2976;SDS011;1498;51.500;7.440;2023-02-11T15:04:28;82.97;;;41.20;;
2976;SDS011;1498;51.500;7.440;2023-02-11T15:07:04;80.17;;;39.97;;
2976;SDS011;1498;51.500;7.440;2023-02-11T15:09:47;83.67;;;39.00;;
2976;SDS011;1498;51.500;7.440;2023-02-11T15:12:17;80.40;;;39.97;;
2976;SDS011;1498;51.500;7.440;2023-02-11T15:14:52;76.93;;;39.80;;
2976;SDS011;1498;51.500;7.440;2023-02-11T15:17:27;83.37;;;40.30;;
2976;SDS011;1498;51.500;7.440;2023-02-11T15:19:56;72.87;;;39.80;;
2976;SDS011;1498;51.500;7.440;2023-02-11T15:22:25;76.20;;;38.77;;
2976;SDS011;1498;51.500;7.440;2023-02-11T15:27:38;75.67;;;39.90;;
2976;SDS011;1498;51.500;7.440;2023-02-11T15:30:27;81.13;;;39.23;;
2976;SDS011;1498;51.500;7.440;2023-02-11T15:35:28;76.87;;;38.43;;
2976;SDS011;1498;51.500;7.440;2023-02-11T15:37:57;72.20;;;38.60;;
2976;SDS011;1498;51.500;7.440;2023-02-11T15:40:24;79.30;;;39.93;;
2976;SDS011;1498;51.500;7.440;2023-02-11T15:42:57;78.07;;;37.67;;
2976;SDS011;1498;51.500;7.440;2023-02-11T15:45:43;67.73;;;38.60;;
2976;SDS011;1498;51.500;7.440;2023-02-11T15:48:16;70.43;;;38.90;;
2976;SDS011;1498;51.500;7.440;2023-02-11T15:50:59;82.27;;;40.03;;
2976;SDS011;1498;51.500;7.440;2023-02-11T15:58:46;79.90;;;39.57;;
2976;SDS011;1498;51.500;7.440;2023-02-11T16:01:13;73.47;;;38.30;;
2976;SDS011;1498;51.500;7.440;2023-02-11T16:03:40;75.07;;;39.70;;
2976;SDS011;1498;51.500;7.440;2023-02-11T16:09:21;75.77;;;36.50;;
2976;SDS011;1498;51.500;7.440;2023-02-11T16:17:04;79.77;;;37.80;;
2976;SDS011;1498;51.500;7.440;2023-02-11T16:19:40;68.17;;;38.27;;
2976;SDS011;1498;51.500;7.440;2023-02-11T16:22:09;63.47;;;35.47;;
2976;SDS011;1498;51.500;7.440;2023-02-11T16:24:39;65.27;;;35.70;;
2976;SDS011;1498;51.500;7.440;2023-02-11T16:27:07;68.23;;;36.10;;
2976;SDS011;1498;51.500;7.440;2023-02-11T16:29:47;69.67;;;38.20;;
2976;SDS011;1498;51.500;7.440;2023-02-11T16:32:21;67.00;;;35.40;;
2976;SDS011;1498;51.500;7.440;2023-02-11T16:34:48;61.57;;;33.70;;
2976;SDS011;1498;51.500;7.440;2023-02-11T16:37:15;65.87;;;33.93;;
2976;SDS011;1498;51.500;7.440;2023-02-11T16:39:40;68.67;;;35.57;;
2976;SDS011;1498;51.500;7.440;2023-02-11T16:42:06;61.20;;;35.23;;
2976;SDS011;1498;51.500;7.440;2023-02-11T16:44:32;61.87;;;31.60;;
2976;SDS011;1498;51.500;7.440;2023-02-11T16:46:58;57.33;;;33.27;;
2976;SDS011;1498;51.500;7.440;2023-02-11T16:49:26;69.00;;;40.25;;
2976;SDS011;1498;51.500;7.440;2023-02-11T16:52:07;69.83;;;36.30;;
2976;SDS011;1498;51.500;7.440;2023-02-11T16:54:36;58.77;;;36.67;;
2976;SDS011;1498;51.500;7.440;2023-02-11T16:57:04;63.00;;;32.20;;
2976;SDS011;1498;51.500;7.440;2023-02-11T16:59:37;65.57;;;32.23;;
2976;SDS011;1498;51.500;7.440;2023-02-11T17:02:03;74.33;;;34.83;;
2976;SDS011;1498;51.500;7.440;2023-02-11T17:04:29;60.80;;;31.70;;
2976;SDS011;1498;51.500;7.440;2023-02-11T17:06:57;66.53;;;32.97;;
2976;SDS011;1498;51.500;7.440;2023-02-11T17:09:23;61.97;;;33.90;;
2976;SDS011;1498;51.500;7.440;2023-02-11T17:11:50;65.60;;;32.90;;
2976;SDS011;1498;51.500;7.440;2023-02-11T17:14:16;69.50;;;33.90;;
2976;SDS011;1498;51.500;7.440;2023-02-11T17:16:43;70.07;;;36.83;;
2976;SDS011;1498;51.500;7.440;2023-02-11T17:19:13;84.13;;;35.60;;
2976;SDS011;1498;51.500;7.440;2023-02-11T17:21:42;64.17;;;35.87;;
2976;SDS011;1498;51.500;7.440;2023-02-11T17:24:09;65.43;;;35.13;;
2976;SDS011;1498;51.500;7.440;2023-02-11T17:26:35;78.07;;;34.90;;
2976;SDS011;1498;51.500;7.440;2023-02-11T17:29:05;66.27;;;34.57;;
2976;SDS011;1498;51.500;7.440;2023-02-11T17:31:31;64.10;;;34.37;;
2976;SDS011;1498;51.500;7.440;2023-02-11T17:33:57;65.67;;;35.10;;
2976;SDS011;1498;51.500;7.440;2023-02-11T17:36:23;53.77;;;33.53;;
2976;SDS011;1498;51.500;7.440;2023-02-11T17:38:48;60.30;;;34.57;;
2976;SDS011;1498;51.500;7.440;2023-02-11T17:41:15;66.97;;;35.13;;
2976;SDS011;1498;51.500;7.440;2023-02-11T17:43:41;67.13;;;34.97;;
2976;SDS011;1498;51.500;7.440;2023-02-11T17:46:08;68.90;;;35.40;;
2976;SDS011;1498;51.500;7.440;2023-02-11T17:48:35;59.67;;;33.87;;
2976;SDS011;1498;51.500;7.440;2023-02-11T17:51:01;70.80;;;37.50;;
2976;SDS011;1498;51.500;7.440;2023-02-11T17:53:27;83.00;;;37.97;;
2976;SDS011;1498;51.500;7.440;2023-02-11T17:55:53;70.93;;;37.40;;
2976;SDS011;1498;51.500;7.440;2023-02-11T17:58:20;77.97;;;35.00;;
2976;SDS011;1498;51.500;7.440;2023-02-11T18:00:45;70.57;;;37.40;;
2976;SDS011;1498;51.500;7.440;2023-02-11T18:03:11;69.87;;;38.67;;
2976;SDS011;1498;51.500;7.440;2023-02-11T18:05:37;75.60;;;35.60;;
2976;SDS011;1498;51.500;7.440;2023-02-11T18:08:03;58.77;;;37.17;;
2976;SDS011;1498;51.500;7.440;2023-02-11T18:10:29;76.47;;;37.70;;
2976;SDS011;1498;51.500;7.440;2023-02-11T18:12:55;64.37;;;34.90;;
2976;SDS011;1498;51.500;7.440;2023-02-11T18:15:21;72.70;;;33.63;;
2976;SDS011;1498;51.500;7.440;2023-02-11T18:17:47;76.20;;;37.67;;
2976;SDS011;1498;51.500;7.440;2023-02-11T18:20:12;59.33;;;33.27;;
2976;SDS011;1498;51.500;7.440;2023-02-11T18:22:39;70.10;;;37.00;;
2976;SDS011;1498;51.500;7.440;2023-02-11T18:25:09;77.83;;;37.23;;
2976;SDS011;1498;51.500;7.440;2023-02-11T18:27:38;73.80;;;33.77;;
2976;SDS011;1498;51.500;7.440;2023-02-11T18:30:04;67.73;;;33.87;;
2976;SDS011;1498;51.500;7.440;2023-02-11T18:32:30;71.30;;;35.80;;
2976;SDS011;1498;51.500;7.440;2023-02-11T18:34:56;74.00;;;35.37;;
2976;SDS011;1498;51.500;7.440;2023-02-11T18:37:21;69.83;;;36.50;;
2976;SDS011;1498;51.500;7.440;2023-02-11T18:39:47;65.27;;;34.37;;
2976;SDS011;1498;51.500;7.440;2023-02-11T18:42:12;72.97;;;35.80;;
2976;SDS011;1498;51.500;7.440;2023-02-11T18:44:38;73.93;;;36.63;;
2976;SDS011;1498;51.500;7.440;2023-02-11T18:47:03;66.67;;;36.73;;
2976;SDS011;1498;51.500;7.440;2023-02-11T18:49:29;67.67;;;35.53;;
2976;SDS011;1498;51.500;7.440;2023-02-11T18:51:55;84.80;;;38.73;;
2976;SDS011;1498;51.500;7.440;2023-02-11T18:54:22;74.37;;;38.53;;
2976;SDS011;1498;51.500;7.440;2023-02-11T18:56:48;76.03;;;38.57;;
2976;SDS011;1498;51.500;7.440;2023-02-11T18:59:13;67.00;;;38.60;;
2976;SDS011;1498;51.500;7.440;2023-02-11T19:01:39;91.03;;;43.03;;
2976;SDS011;1498;51.500;7.440;2023-02-11T19:04:07;78.33;;;39.73;;
2976;SDS011;1498;51.500;7.440;2023-02-11T19:06:34;82.17;;;38.80;;
2976;SDS011;1498;51.500;7.440;2023-02-11T19:09:03;76.63;;;39.07;;
2976;SDS011;1498;51.500;7.440;2023-02-11T19:11:31;85.83;;;41.80;;